sensor_id;sensor_type;location;lat;lon;timestamp;temperature;humidity
48162;DHT22;33950;48.154;16.316;2023-02-28T00:02:13;3.50;79.10
48162;DHT22;33950;48.154;16.316;2023-02-28T00:05:00;3.40;79.10
48162;DHT22;33950;48.154;16.316;2023-02-28T00:07:49;3.30;79.30
48162;DHT22;33950;48.154;16.316;2023-02-28T00:10:36;3.30;79.50
48162;DHT22;33950;48.154;16.316;2023-02-28T00:13:22;3.30;79.40
48162;DHT22;33950;48.154;16.316;2023-02-28T00:16:10;3.20;79.20
48162;DHT22;33950;48.154;16.316;2023-02-28T00:18:56;3.10;79.40
48162;DHT22;33950;48.154;16.316;2023-02-28T00:21:43;3.10;79.60
48162;DHT22;33950;48.154;16.316;2023-02-28T00:24:29;3.00;79.70
48162;DHT22;33950;48.154;16.316;2023-02-28T00:27:15;3.10;79.90
48162;DHT22;33950;48.154;16.316;2023-02-28T00:30:02;3.00;79.70
48162;DHT22;33950;48.154;16.316;2023-02-28T00:32:49;3.00;79.90
48162;DHT22;33950;48.154;16.316;2023-02-28T00:35:35;3.00;80.00
48162;DHT22;33950;48.154;16.316;2023-02-28T00:38:22;3.00;80.00
48162;DHT22;33950;48.154;16.316;2023-02-28T00:41:08;3.10;79.90
48162;DHT22;33950;48.154;16.316;2023-02-28T00:43:54;3.10;79.80
48162;DHT22;33950;48.154;16.316;2023-02-28T00:46:41;3.00;79.80
48162;DHT22;33950;48.154;16.316;2023-02-28T00:49:27;3.00;79.90
48162;DHT22;33950;48.154;16.316;2023-02-28T00:52:13;2.90;79.80
48162;DHT22;33950;48.154;16.316;2023-02-28T00:55:01;3.00;79.80
48162;DHT22;33950;48.154;16.316;2023-02-28T00:57:47;3.00;79.80
48162;DHT22;33950;48.154;16.316;2023-02-28T01:00:33;3.00;79.70
48162;DHT22;33950;48.154;16.316;2023-02-28T01:03:20;3.20;79.70
48162;DHT22;33950;48.154;16.316;2023-02-28T01:06:06;3.10;79.60
48162;DHT22;33950;48.154;16.316;2023-02-28T01:08:52;3.10;79.50
48162;DHT22;33950;48.154;16.316;2023-02-28T01:11:40;3.20;79.50
48162;DHT22;33950;48.154;16.316;2023-02-28T01:14:27;3.20;79.50
48162;DHT22;33950;48.154;16.316;2023-02-28T01:17:13;3.20;79.40
48162;DHT22;33950;48.154;16.316;2023-02-28T01:19:59;3.10;79.30
48162;DHT22;33950;48.154;16.316;2023-02-28T01:22:45;3.20;79.40
48162;DHT22;33950;48.154;16.316;2023-02-28T01:25:34;3.20;79.40
48162;DHT22;33950;48.154;16.316;2023-02-28T01:28:22;3.20;79.30
48162;DHT22;33950;48.154;16.316;2023-02-28T01:31:09;3.30;79.40
48162;DHT22;33950;48.154;16.316;2023-02-28T01:33:55;3.30;79.30
48162;DHT22;33950;48.154;16.316;2023-02-28T01:36:41;3.30;79.60
48162;DHT22;33950;48.154;16.316;2023-02-28T01:39:27;3.30;79.00
48162;DHT22;33950;48.154;16.316;2023-02-28T01:42:13;3.40;79.10
48162;DHT22;33950;48.154;16.316;2023-02-28T01:45:06;3.40;79.20
48162;DHT22;33950;48.154;16.316;2023-02-28T01:47:55;3.40;79.30
48162;DHT22;33950;48.154;16.316;2023-02-28T01:50:45;3.50;79.40
48162;DHT22;33950;48.154;16.316;2023-02-28T01:53:36;3.50;79.30
48162;DHT22;33950;48.154;16.316;2023-02-28T01:56:27;3.50;79.30
48162;DHT22;33950;48.154;16.316;2023-02-28T01:59:18;3.50;79.20
48162;DHT22;33950;48.154;16.316;2023-02-28T02:02:06;3.60;79.10
48162;DHT22;33950;48.154;16.316;2023-02-28T02:04:56;3.60;79.00
48162;DHT22;33950;48.154;16.316;2023-02-28T02:07:46;3.60;79.20
48162;DHT22;33950;48.154;16.316;2023-02-28T02:10:35;3.60;79.10
48162;DHT22;33950;48.154;16.316;2023-02-28T02:13:36;3.60;79.10
48162;DHT22;33950;48.154;16.316;2023-02-28T02:16:34;3.50;79.10
48162;DHT22;33950;48.154;16.316;2023-02-28T02:23:16;3.60;78.90
48162;DHT22;33950;48.154;16.316;2023-02-28T02:26:23;3.60;78.70
48162;DHT22;33950;48.154;16.316;2023-02-28T02:29:34;3.60;78.70
48162;DHT22;33950;48.154;16.316;2023-02-28T02:32:43;3.60;78.80
48162;DHT22;33950;48.154;16.316;2023-02-28T02:35:35;3.70;78.80
48162;DHT22;33950;48.154;16.316;2023-02-28T02:38:32;3.60;78.70
48162;DHT22;33950;48.154;16.316;2023-02-28T02:41:26;3.60;78.70
48162;DHT22;33950;48.154;16.316;2023-02-28T02:44:20;3.50;78.70
48162;DHT22;33950;48.154;16.316;2023-02-28T02:47:10;3.50;78.80
48162;DHT22;33950;48.154;16.316;2023-02-28T02:50:01;3.60;78.80
48162;DHT22;33950;48.154;16.316;2023-02-28T02:52:53;3.50;78.70
48162;DHT22;33950;48.154;16.316;2023-02-28T02:55:45;3.50;78.70
48162;DHT22;33950;48.154;16.316;2023-02-28T02:58:35;3.50;78.70
48162;DHT22;33950;48.154;16.316;2023-02-28T03:01:29;3.50;78.90
48162;DHT22;33950;48.154;16.316;2023-02-28T03:04:19;3.50;78.80
48162;DHT22;33950;48.154;16.316;2023-02-28T03:07:07;3.50;78.70
48162;DHT22;33950;48.154;16.316;2023-02-28T03:09:55;3.50;78.90
48162;DHT22;33950;48.154;16.316;2023-02-28T03:12:52;3.40;79.00
48162;DHT22;33950;48.154;16.316;2023-02-28T03:15:48;3.40;79.10
48162;DHT22;33950;48.154;16.316;2023-02-28T03:18:40;3.40;79.10
48162;DHT22;33950;48.154;16.316;2023-02-28T03:21:32;3.40;79.00
48162;DHT22;33950;48.154;16.316;2023-02-28T03:24:21;3.40;79.20
48162;DHT22;33950;48.154;16.316;2023-02-28T03:27:23;3.40;79.20
48162;DHT22;33950;48.154;16.316;2023-02-28T03:30:14;3.30;79.10
48162;DHT22;33950;48.154;16.316;2023-02-28T03:33:05;3.30;79.20
48162;DHT22;33950;48.154;16.316;2023-02-28T03:35:55;3.30;79.20
48162;DHT22;33950;48.154;16.316;2023-02-28T03:38:45;3.30;79.20
48162;DHT22;33950;48.154;16.316;2023-02-28T03:41:37;3.30;79.30
48162;DHT22;33950;48.154;16.316;2023-02-28T03:44:29;3.30;79.30
48162;DHT22;33950;48.154;16.316;2023-02-28T03:47:19;3.30;79.30
48162;DHT22;33950;48.154;16.316;2023-02-28T03:50:10;3.20;79.20
48162;DHT22;33950;48.154;16.316;2023-02-28T03:53:00;3.20;79.20
48162;DHT22;33950;48.154;16.316;2023-02-28T03:55:50;3.20;79.30
48162;DHT22;33950;48.154;16.316;2023-02-28T03:58:41;3.10;79.30
48162;DHT22;33950;48.154;16.316;2023-02-28T04:01:35;3.10;79.50
48162;DHT22;33950;48.154;16.316;2023-02-28T04:04:21;3.10;79.50
48162;DHT22;33950;48.154;16.316;2023-02-28T04:07:08;3.10;79.60
48162;DHT22;33950;48.154;16.316;2023-02-28T04:09:57;3.10;79.70
48162;DHT22;33950;48.154;16.316;2023-02-28T04:12:43;3.10;79.70
48162;DHT22;33950;48.154;16.316;2023-02-28T04:15:29;3.10;79.80
48162;DHT22;33950;48.154;16.316;2023-02-28T04:18:17;3.20;79.80
48162;DHT22;33950;48.154;16.316;2023-02-28T04:21:03;3.10;79.90
48162;DHT22;33950;48.154;16.316;2023-02-28T04:23:49;3.10;80.00
48162;DHT22;33950;48.154;16.316;2023-02-28T04:26:36;3.10;80.10
48162;DHT22;33950;48.154;16.316;2023-02-28T04:29:24;3.10;80.10
48162;DHT22;33950;48.154;16.316;2023-02-28T04:32:11;3.20;80.10
48162;DHT22;33950;48.154;16.316;2023-02-28T04:34:58;3.10;80.10
48162;DHT22;33950;48.154;16.316;2023-02-28T04:37:44;3.00;80.30
48162;DHT22;33950;48.154;16.316;2023-02-28T04:40:30;3.00;80.40
48162;DHT22;33950;48.154;16.316;2023-02-28T04:43:16;3.00;80.50
48162;DHT22;33950;48.154;16.316;2023-02-28T04:46:04;2.90;80.50
48162;DHT22;33950;48.154;16.316;2023-02-28T04:48:50;3.00;80.70
48162;DHT22;33950;48.154;16.316;2023-02-28T04:51:38;3.00;80.60
48162;DHT22;33950;48.154;16.316;2023-02-28T04:54:24;2.90;80.80
48162;DHT22;33950;48.154;16.316;2023-02-28T04:57:10;2.90;80.70
48162;DHT22;33950;48.154;16.316;2023-02-28T04:59:56;2.90;80.70
48162;DHT22;33950;48.154;16.316;2023-02-28T05:02:42;2.90;81.00
48162;DHT22;33950;48.154;16.316;2023-02-28T05:05:28;2.90;81.10
48162;DHT22;33950;48.154;16.316;2023-02-28T05:08:15;2.90;81.20
48162;DHT22;33950;48.154;16.316;2023-02-28T05:11:02;2.90;81.20
48162;DHT22;33950;48.154;16.316;2023-02-28T05:13:49;2.90;81.20
48162;DHT22;33950;48.154;16.316;2023-02-28T05:16:36;2.90;81.20
48162;DHT22;33950;48.154;16.316;2023-02-28T05:19:22;2.90;81.20
48162;DHT22;33950;48.154;16.316;2023-02-28T05:22:13;3.00;81.40
48162;DHT22;33950;48.154;16.316;2023-02-28T05:25:01;3.00;81.30
48162;DHT22;33950;48.154;16.316;2023-02-28T05:27:47;3.00;81.20
48162;DHT22;33950;48.154;16.316;2023-02-28T05:30:33;3.00;81.20
48162;DHT22;33950;48.154;16.316;2023-02-28T05:33:19;3.00;81.20
48162;DHT22;33950;48.154;16.316;2023-02-28T05:36:07;3.00;81.20
48162;DHT22;33950;48.154;16.316;2023-02-28T05:38:53;2.90;81.30
48162;DHT22;33950;48.154;16.316;2023-02-28T05:41:42;2.80;81.20
48162;DHT22;33950;48.154;16.316;2023-02-28T05:44:28;2.80;81.40
48162;DHT22;33950;48.154;16.316;2023-02-28T05:47:14;2.80;81.60
48162;DHT22;33950;48.154;16.316;2023-02-28T05:50:01;2.80;81.70
48162;DHT22;33950;48.154;16.316;2023-02-28T05:52:49;2.90;81.60
48162;DHT22;33950;48.154;16.316;2023-02-28T05:55:35;2.80;81.70
48162;DHT22;33950;48.154;16.316;2023-02-28T05:58:24;2.80;81.90
48162;DHT22;33950;48.154;16.316;2023-02-28T06:01:23;2.80;81.90
48162;DHT22;33950;48.154;16.316;2023-02-28T06:04:10;2.80;82.10
48162;DHT22;33950;48.154;16.316;2023-02-28T06:06:56;2.80;82.30
48162;DHT22;33950;48.154;16.316;2023-02-28T06:09:43;2.90;82.30
48162;DHT22;33950;48.154;16.316;2023-02-28T06:12:29;2.90;82.40
48162;DHT22;33950;48.154;16.316;2023-02-28T06:15:16;2.80;82.40
48162;DHT22;33950;48.154;16.316;2023-02-28T06:18:03;2.70;82.70
48162;DHT22;33950;48.154;16.316;2023-02-28T06:20:52;2.70;82.90
48162;DHT22;33950;48.154;16.316;2023-02-28T06:23:40;2.60;83.20
48162;DHT22;33950;48.154;16.316;2023-02-28T06:26:26;2.60;83.40
48162;DHT22;33950;48.154;16.316;2023-02-28T06:29:12;2.60;83.70
48162;DHT22;33950;48.154;16.316;2023-02-28T06:32:04;2.60;83.70
48162;DHT22;33950;48.154;16.316;2023-02-28T06:34:50;2.60;83.70
48162;DHT22;33950;48.154;16.316;2023-02-28T06:37:36;2.60;83.90
48162;DHT22;33950;48.154;16.316;2023-02-28T06:40:23;2.60;84.00
48162;DHT22;33950;48.154;16.316;2023-02-28T06:43:09;2.60;84.70
48162;DHT22;33950;48.154;16.316;2023-02-28T06:46:00;2.50;84.50
48162;DHT22;33950;48.154;16.316;2023-02-28T06:48:47;2.40;84.70
48162;DHT22;33950;48.154;16.316;2023-02-28T06:51:35;2.40;85.40
48162;DHT22;33950;48.154;16.316;2023-02-28T06:54:21;2.40;85.00
48162;DHT22;33950;48.154;16.316;2023-02-28T06:57:07;2.40;85.10
48162;DHT22;33950;48.154;16.316;2023-02-28T06:59:53;2.40;85.20
48162;DHT22;33950;48.154;16.316;2023-02-28T07:02:39;2.50;85.40
48162;DHT22;33950;48.154;16.316;2023-02-28T07:05:27;2.40;85.40
48162;DHT22;33950;48.154;16.316;2023-02-28T07:08:13;2.40;85.30
48162;DHT22;33950;48.154;16.316;2023-02-28T07:10:59;2.40;85.20
48162;DHT22;33950;48.154;16.316;2023-02-28T07:13:45;2.30;85.10
48162;DHT22;33950;48.154;16.316;2023-02-28T07:16:33;2.30;85.40
48162;DHT22;33950;48.154;16.316;2023-02-28T07:19:19;2.40;85.40
48162;DHT22;33950;48.154;16.316;2023-02-28T07:22:07;2.40;85.10
48162;DHT22;33950;48.154;16.316;2023-02-28T07:24:53;2.60;85.00
48162;DHT22;33950;48.154;16.316;2023-02-28T07:27:39;2.50;85.40
48162;DHT22;33950;48.154;16.316;2023-02-28T07:30:25;2.50;85.70
48162;DHT22;33950;48.154;16.316;2023-02-28T07:33:11;2.60;85.40
48162;DHT22;33950;48.154;16.316;2023-02-28T07:36:00;2.50;85.80
48162;DHT22;33950;48.154;16.316;2023-02-28T07:38:48;2.60;85.50
48162;DHT22;33950;48.154;16.316;2023-02-28T07:41:35;2.70;85.50
48162;DHT22;33950;48.154;16.316;2023-02-28T07:44:28;2.60;85.30
48162;DHT22;33950;48.154;16.316;2023-02-28T07:47:15;2.70;85.40
48162;DHT22;33950;48.154;16.316;2023-02-28T07:50:01;2.80;85.60
48162;DHT22;33950;48.154;16.316;2023-02-28T07:52:47;2.80;85.60
48162;DHT22;33950;48.154;16.316;2023-02-28T07:55:34;3.00;86.10
48162;DHT22;33950;48.154;16.316;2023-02-28T07:58:20;2.80;85.60
48162;DHT22;33950;48.154;16.316;2023-02-28T08:01:08;2.90;85.50
48162;DHT22;33950;48.154;16.316;2023-02-28T08:03:54;2.90;85.50
48162;DHT22;33950;48.154;16.316;2023-02-28T08:06:43;3.00;85.70
48162;DHT22;33950;48.154;16.316;2023-02-28T08:09:29;3.10;85.80
48162;DHT22;33950;48.154;16.316;2023-02-28T08:12:17;3.10;85.70
48162;DHT22;33950;48.154;16.316;2023-02-28T08:15:04;3.10;85.70
48162;DHT22;33950;48.154;16.316;2023-02-28T08:17:50;3.30;85.70
48162;DHT22;33950;48.154;16.316;2023-02-28T08:20:36;3.30;85.00
48162;DHT22;33950;48.154;16.316;2023-02-28T08:23:22;3.40;84.60
48162;DHT22;33950;48.154;16.316;2023-02-28T08:26:08;3.30;84.70
48162;DHT22;33950;48.154;16.316;2023-02-28T08:28:56;3.40;84.50
48162;DHT22;33950;48.154;16.316;2023-02-28T08:31:42;3.40;84.30
48162;DHT22;33950;48.154;16.316;2023-02-28T08:34:28;3.50;83.20
48162;DHT22;33950;48.154;16.316;2023-02-28T08:37:15;3.50;83.40
48162;DHT22;33950;48.154;16.316;2023-02-28T08:40:01;3.60;83.10
48162;DHT22;33950;48.154;16.316;2023-02-28T08:42:47;3.50;83.30
48162;DHT22;33950;48.154;16.316;2023-02-28T08:45:35;3.60;83.00
48162;DHT22;33950;48.154;16.316;2023-02-28T08:48:21;3.40;82.50
48162;DHT22;33950;48.154;16.316;2023-02-28T08:51:09;3.80;82.30
48162;DHT22;33950;48.154;16.316;2023-02-28T08:53:58;3.80;82.40
48162;DHT22;33950;48.154;16.316;2023-02-28T08:56:45;3.70;82.20
48162;DHT22;33950;48.154;16.316;2023-02-28T08:59:34;3.70;81.80
48162;DHT22;33950;48.154;16.316;2023-02-28T09:02:22;3.70;81.90
48162;DHT22;33950;48.154;16.316;2023-02-28T09:05:08;3.60;82.40
48162;DHT22;33950;48.154;16.316;2023-02-28T09:07:54;3.70;82.60
48162;DHT22;33950;48.154;16.316;2023-02-28T09:10:40;3.80;82.40
48162;DHT22;33950;48.154;16.316;2023-02-28T09:13:27;3.90;82.40
48162;DHT22;33950;48.154;16.316;2023-02-28T09:16:15;4.00;82.30
48162;DHT22;33950;48.154;16.316;2023-02-28T09:19:03;4.20;82.10
48162;DHT22;33950;48.154;16.316;2023-02-28T09:21:49;4.20;82.00
48162;DHT22;33950;48.154;16.316;2023-02-28T09:24:35;4.20;82.20
48162;DHT22;33950;48.154;16.316;2023-02-28T09:27:22;4.40;82.00
48162;DHT22;33950;48.154;16.316;2023-02-28T09:30:09;4.50;81.70
48162;DHT22;33950;48.154;16.316;2023-02-28T09:32:55;4.50;81.60
48162;DHT22;33950;48.154;16.316;2023-02-28T09:35:43;4.60;81.80
48162;DHT22;33950;48.154;16.316;2023-02-28T09:38:29;4.60;81.90
48162;DHT22;33950;48.154;16.316;2023-02-28T09:41:17;4.80;81.70
48162;DHT22;33950;48.154;16.316;2023-02-28T09:44:05;4.90;81.60
48162;DHT22;33950;48.154;16.316;2023-02-28T09:46:57;5.00;81.50
48162;DHT22;33950;48.154;16.316;2023-02-28T09:49:46;5.00;81.30
48162;DHT22;33950;48.154;16.316;2023-02-28T09:52:34;5.00;81.10
48162;DHT22;33950;48.154;16.316;2023-02-28T09:55:27;5.00;80.90
48162;DHT22;33950;48.154;16.316;2023-02-28T09:58:19;5.00;81.00
48162;DHT22;33950;48.154;16.316;2023-02-28T10:01:12;4.90;81.00
48162;DHT22;33950;48.154;16.316;2023-02-28T10:04:08;4.90;80.90
48162;DHT22;33950;48.154;16.316;2023-02-28T10:06:56;4.90;81.70
48162;DHT22;33950;48.154;16.316;2023-02-28T10:09:45;5.00;81.30
48162;DHT22;33950;48.154;16.316;2023-02-28T10:12:33;5.10;81.30
48162;DHT22;33950;48.154;16.316;2023-02-28T10:15:25;5.10;81.60
48162;DHT22;33950;48.154;16.316;2023-02-28T10:18:16;5.20;81.80
48162;DHT22;33950;48.154;16.316;2023-02-28T10:21:04;5.30;81.90
48162;DHT22;33950;48.154;16.316;2023-02-28T10:23:55;5.40;81.70
48162;DHT22;33950;48.154;16.316;2023-02-28T10:26:45;5.50;81.70
48162;DHT22;33950;48.154;16.316;2023-02-28T10:29:33;5.50;81.50
48162;DHT22;33950;48.154;16.316;2023-02-28T10:32:22;5.60;81.20
48162;DHT22;33950;48.154;16.316;2023-02-28T10:35:15;5.50;81.20
48162;DHT22;33950;48.154;16.316;2023-02-28T10:38:13;5.50;81.60
48162;DHT22;33950;48.154;16.316;2023-02-28T10:41:05;5.50;81.20
48162;DHT22;33950;48.154;16.316;2023-02-28T10:46:56;5.60;81.40
48162;DHT22;33950;48.154;16.316;2023-02-28T10:49:47;5.80;81.00
48162;DHT22;33950;48.154;16.316;2023-02-28T10:52:37;6.30;81.90
48162;DHT22;33950;48.154;16.316;2023-02-28T10:55:25;7.30;80.10
48162;DHT22;33950;48.154;16.316;2023-02-28T10:58:21;7.70;78.20
48162;DHT22;33950;48.154;16.316;2023-02-28T11:01:14;8.30;77.90
48162;DHT22;33950;48.154;16.316;2023-02-28T11:04:00;8.80;76.20
48162;DHT22;33950;48.154;16.316;2023-02-28T11:06:46;8.90;74.70
48162;DHT22;33950;48.154;16.316;2023-02-28T11:09:34;8.50;75.20
48162;DHT22;33950;48.154;16.316;2023-02-28T11:12:23;8.30;75.70
48162;DHT22;33950;48.154;16.316;2023-02-28T11:15:21;7.70;75.30
48162;DHT22;33950;48.154;16.316;2023-02-28T11:18:21;7.50;75.90
48162;DHT22;33950;48.154;16.316;2023-02-28T11:21:09;8.00;76.20
48162;DHT22;33950;48.154;16.316;2023-02-28T11:24:02;8.60;74.80
48162;DHT22;33950;48.154;16.316;2023-02-28T11:26:49;9.10;73.90
48162;DHT22;33950;48.154;16.316;2023-02-28T11:29:47;9.60;74.00
48162;DHT22;33950;48.154;16.316;2023-02-28T11:32:33;10.10;72.80
48162;DHT22;33950;48.154;16.316;2023-02-28T11:35:26;10.40;71.90
48162;DHT22;33950;48.154;16.316;2023-02-28T11:38:12;10.40;70.60
48162;DHT22;33950;48.154;16.316;2023-02-28T11:41:16;10.20;71.50
48162;DHT22;33950;48.154;16.316;2023-02-28T11:47:17;10.50;69.50
48162;DHT22;33950;48.154;16.316;2023-02-28T11:50:22;9.60;70.10
48162;DHT22;33950;48.154;16.316;2023-02-28T11:53:19;9.00;71.60
48162;DHT22;33950;48.154;16.316;2023-02-28T11:56:12;8.40;72.50
48162;DHT22;33950;48.154;16.316;2023-02-28T11:59:21;8.20;73.50
48162;DHT22;33950;48.154;16.316;2023-02-28T12:02:23;8.10;73.90
48162;DHT22;33950;48.154;16.316;2023-02-28T12:05:20;8.10;73.80
48162;DHT22;33950;48.154;16.316;2023-02-28T12:08:22;7.80;73.90
48162;DHT22;33950;48.154;16.316;2023-02-28T12:11:19;7.80;73.90
48162;DHT22;33950;48.154;16.316;2023-02-28T12:17:43;8.70;73.60
48162;DHT22;33950;48.154;16.316;2023-02-28T12:20:34;9.50;72.10
48162;DHT22;33950;48.154;16.316;2023-02-28T12:23:43;9.50;69.70
48162;DHT22;33950;48.154;16.316;2023-02-28T12:26:37;8.90;70.90
48162;DHT22;33950;48.154;16.316;2023-02-28T12:29:26;9.00;71.20
48162;DHT22;33950;48.154;16.316;2023-02-28T12:32:18;9.00;71.20
48162;DHT22;33950;48.154;16.316;2023-02-28T12:35:12;8.80;71.20
48162;DHT22;33950;48.154;16.316;2023-02-28T12:38:04;9.00;71.40
48162;DHT22;33950;48.154;16.316;2023-02-28T12:40:54;8.80;70.50
48162;DHT22;33950;48.154;16.316;2023-02-28T12:43:44;8.60;70.70
48162;DHT22;33950;48.154;16.316;2023-02-28T12:46:33;8.30;71.40
48162;DHT22;33950;48.154;16.316;2023-02-28T12:49:25;8.50;72.10
48162;DHT22;33950;48.154;16.316;2023-02-28T12:52:19;9.10;72.30
48162;DHT22;33950;48.154;16.316;2023-02-28T12:55:13;10.00;70.90
48162;DHT22;33950;48.154;16.316;2023-02-28T12:58:10;10.80;69.30
48162;DHT22;33950;48.154;16.316;2023-02-28T13:01:33;11.30;66.70
48162;DHT22;33950;48.154;16.316;2023-02-28T13:04:38;11.50;66.10
48162;DHT22;33950;48.154;16.316;2023-02-28T13:07:51;11.60;65.30
48162;DHT22;33950;48.154;16.316;2023-02-28T13:10:43;11.60;64.60
48162;DHT22;33950;48.154;16.316;2023-02-28T13:13:31;11.00;64.70
48162;DHT22;33950;48.154;16.316;2023-02-28T13:16:18;10.70;65.20
48162;DHT22;33950;48.154;16.316;2023-02-28T13:19:17;10.30;65.80
48162;DHT22;33950;48.154;16.316;2023-02-28T13:22:16;9.90;66.60
48162;DHT22;33950;48.154;16.316;2023-02-28T13:32:40;9.20;67.50
48162;DHT22;33950;48.154;16.316;2023-02-28T13:35:37;8.90;68.30
48162;DHT22;33950;48.154;16.316;2023-02-28T13:38:36;8.70;68.30
48162;DHT22;33950;48.154;16.316;2023-02-28T13:41:46;8.60;68.40
48162;DHT22;33950;48.154;16.316;2023-02-28T13:48:00;8.80;70.00
48162;DHT22;33950;48.154;16.316;2023-02-28T13:50:47;9.30;69.00
48162;DHT22;33950;48.154;16.316;2023-02-28T13:53:56;9.30;67.50
48162;DHT22;33950;48.154;16.316;2023-02-28T13:56:48;9.10;67.80
48162;DHT22;33950;48.154;16.316;2023-02-28T13:59:45;9.10;68.70
48162;DHT22;33950;48.154;16.316;2023-02-28T14:02:56;9.40;68.40
48162;DHT22;33950;48.154;16.316;2023-02-28T14:06:09;9.60;67.80
48162;DHT22;33950;48.154;16.316;2023-02-28T14:08:58;9.40;67.30
48162;DHT22;33950;48.154;16.316;2023-02-28T14:11:45;9.20;67.50
48162;DHT22;33950;48.154;16.316;2023-02-28T14:14:53;8.90;68.00
48162;DHT22;33950;48.154;16.316;2023-02-28T14:17:40;8.80;68.50
48162;DHT22;33950;48.154;16.316;2023-02-28T14:20:30;8.50;68.60
48162;DHT22;33950;48.154;16.316;2023-02-28T14:23:32;8.40;68.60
48162;DHT22;33950;48.154;16.316;2023-02-28T14:26:32;8.50;69.80
48162;DHT22;33950;48.154;16.316;2023-02-28T14:29:42;8.80;69.50
48162;DHT22;33950;48.154;16.316;2023-02-28T14:32:35;9.20;69.10
48162;DHT22;33950;48.154;16.316;2023-02-28T14:35:43;9.60;68.80
48162;DHT22;33950;48.154;16.316;2023-02-28T14:38:36;10.10;67.60
48162;DHT22;33950;48.154;16.316;2023-02-28T14:41:30;10.10;66.90
48162;DHT22;33950;48.154;16.316;2023-02-28T14:44:19;9.70;67.40
48162;DHT22;33950;48.154;16.316;2023-02-28T14:47:14;9.20;67.90
48162;DHT22;33950;48.154;16.316;2023-02-28T14:50:03;9.00;68.10
48162;DHT22;33950;48.154;16.316;2023-02-28T14:52:52;8.70;68.50
48162;DHT22;33950;48.154;16.316;2023-02-28T14:55:44;8.60;68.70
48162;DHT22;33950;48.154;16.316;2023-02-28T14:58:31;8.50;69.10
48162;DHT22;33950;48.154;16.316;2023-02-28T15:01:19;8.30;69.10
48162;DHT22;33950;48.154;16.316;2023-02-28T15:04:21;8.20;69.30
48162;DHT22;33950;48.154;16.316;2023-02-28T15:07:08;8.10;69.70
48162;DHT22;33950;48.154;16.316;2023-02-28T15:10:17;8.10;69.60
48162;DHT22;33950;48.154;16.316;2023-02-28T15:13:07;8.00;69.80
48162;DHT22;33950;48.154;16.316;2023-02-28T15:15:56;8.10;70.30
48162;DHT22;33950;48.154;16.316;2023-02-28T15:18:46;8.50;69.90
48162;DHT22;33950;48.154;16.316;2023-02-28T15:21:35;8.80;69.50
48162;DHT22;33950;48.154;16.316;2023-02-28T15:24:27;8.90;69.00
48162;DHT22;33950;48.154;16.316;2023-02-28T15:27:21;9.10;68.80
48162;DHT22;33950;48.154;16.316;2023-02-28T15:30:15;9.30;68.20
48162;DHT22;33950;48.154;16.316;2023-02-28T15:33:05;9.30;68.20
48162;DHT22;33950;48.154;16.316;2023-02-28T15:36:11;9.20;68.10
48162;DHT22;33950;48.154;16.316;2023-02-28T15:39:00;9.40;67.70
48162;DHT22;33950;48.154;16.316;2023-02-28T15:41:46;9.20;68.00
48162;DHT22;33950;48.154;16.316;2023-02-28T15:44:34;9.10;68.20
48162;DHT22;33950;48.154;16.316;2023-02-28T15:47:23;9.20;68.30
48162;DHT22;33950;48.154;16.316;2023-02-28T15:50:12;9.30;68.10
48162;DHT22;33950;48.154;16.316;2023-02-28T15:53:00;9.10;68.20
48162;DHT22;33950;48.154;16.316;2023-02-28T15:55:59;9.10;68.60
48162;DHT22;33950;48.154;16.316;2023-02-28T15:58:46;9.00;69.20
48162;DHT22;33950;48.154;16.316;2023-02-28T16:01:33;8.90;68.60
48162;DHT22;33950;48.154;16.316;2023-02-28T16:04:21;8.80;68.40
48162;DHT22;33950;48.154;16.316;2023-02-28T16:07:12;8.70;68.90
48162;DHT22;33950;48.154;16.316;2023-02-28T16:09:58;8.60;68.60
48162;DHT22;33950;48.154;16.316;2023-02-28T16:12:45;8.40;69.20
48162;DHT22;33950;48.154;16.316;2023-02-28T16:15:35;8.20;69.10
48162;DHT22;33950;48.154;16.316;2023-02-28T16:18:27;8.10;69.50
48162;DHT22;33950;48.154;16.316;2023-02-28T16:21:14;8.00;69.90
48162;DHT22;33950;48.154;16.316;2023-02-28T16:24:00;7.90;70.10
48162;DHT22;33950;48.154;16.316;2023-02-28T16:26:48;7.90;70.00
48162;DHT22;33950;48.154;16.316;2023-02-28T16:29:37;7.80;70.50
48162;DHT22;33950;48.154;16.316;2023-02-28T16:32:23;7.80;70.50
48162;DHT22;33950;48.154;16.316;2023-02-28T16:35:10;7.70;70.80
48162;DHT22;33950;48.154;16.316;2023-02-28T16:37:58;7.60;70.90
48162;DHT22;33950;48.154;16.316;2023-02-28T16:40:44;7.60;71.00
48162;DHT22;33950;48.154;16.316;2023-02-28T16:43:31;7.60;71.00
48162;DHT22;33950;48.154;16.316;2023-02-28T16:46:18;7.60;71.20
48162;DHT22;33950;48.154;16.316;2023-02-28T16:49:08;7.70;71.20
48162;DHT22;33950;48.154;16.316;2023-02-28T16:51:54;7.60;70.80
48162;DHT22;33950;48.154;16.316;2023-02-28T16:54:42;7.60;70.80
48162;DHT22;33950;48.154;16.316;2023-02-28T16:57:28;7.50;70.80
48162;DHT22;33950;48.154;16.316;2023-02-28T17:00:14;7.50;71.00
48162;DHT22;33950;48.154;16.316;2023-02-28T17:03:00;7.40;71.10
48162;DHT22;33950;48.154;16.316;2023-02-28T17:05:47;7.40;71.40
48162;DHT22;33950;48.154;16.316;2023-02-28T17:08:33;7.40;71.30
48162;DHT22;33950;48.154;16.316;2023-02-28T17:11:22;7.30;71.20
48162;DHT22;33950;48.154;16.316;2023-02-28T17:14:08;7.40;71.30
48162;DHT22;33950;48.154;16.316;2023-02-28T17:16:54;7.30;71.40
48162;DHT22;33950;48.154;16.316;2023-02-28T17:19:40;7.30;71.60
48162;DHT22;33950;48.154;16.316;2023-02-28T17:22:28;7.30;71.70
48162;DHT22;33950;48.154;16.316;2023-02-28T17:25:15;7.30;71.80
48162;DHT22;33950;48.154;16.316;2023-02-28T17:28:02;7.30;72.00
48162;DHT22;33950;48.154;16.316;2023-02-28T17:30:48;7.40;72.10
48162;DHT22;33950;48.154;16.316;2023-02-28T17:33:35;7.30;72.00
48162;DHT22;33950;48.154;16.316;2023-02-28T17:36:22;7.30;72.00
48162;DHT22;33950;48.154;16.316;2023-02-28T17:39:11;7.30;72.20
48162;DHT22;33950;48.154;16.316;2023-02-28T17:41:59;7.30;72.30
48162;DHT22;33950;48.154;16.316;2023-02-28T17:44:47;7.30;72.30
48162;DHT22;33950;48.154;16.316;2023-02-28T17:47:33;7.30;72.40
48162;DHT22;33950;48.154;16.316;2023-02-28T17:50:20;7.30;72.60
48162;DHT22;33950;48.154;16.316;2023-02-28T17:53:07;7.30;72.50
48162;DHT22;33950;48.154;16.316;2023-02-28T17:55:53;7.20;72.70
48162;DHT22;33950;48.154;16.316;2023-02-28T17:58:39;7.20;72.90
48162;DHT22;33950;48.154;16.316;2023-02-28T18:01:26;7.20;72.90
48162;DHT22;33950;48.154;16.316;2023-02-28T18:04:13;7.10;73.60
48162;DHT22;33950;48.154;16.316;2023-02-28T18:07:00;7.00;73.00
48162;DHT22;33950;48.154;16.316;2023-02-28T18:09:46;6.90;73.10
48162;DHT22;33950;48.154;16.316;2023-02-28T18:12:32;6.90;73.70
48162;DHT22;33950;48.154;16.316;2023-02-28T18:15:20;6.90;73.30
48162;DHT22;33950;48.154;16.316;2023-02-28T18:18:08;6.90;73.50